Sbi Tango — V7KC3 — position and weather

sailwx.info

Track history (hours):
 
Tides and Currents Weather Stations Pressure Air Temp Water Temp Dewpoint Dewpoint Depression Visibility Wind Speed Wind Dir Waves Ship Positions

Sbi Tango

Last reported at 2017-Dec-15 23:29 UTC. Time now 2017-Dec-15 23:52 UTC.
Position S 37°33' E 176°09'.

Length 199 m; draft 9.1 m.

Type: Cargo ship. MMSI: 538006140.

Date/timePositionNaut miles runAvg speedWind from/ knotsBaromVisibWave heightAir tempDewpointWater temp
2017-Dec-15 23:29S 37°33' E 176°09'0 0.0
2017-Dec-15 22:59S 37°33' E 176°09'0 0.1
2017-Dec-15 22:29S 37°33' E 176°09'0 0.0
2017-Dec-15 21:59S 37°33' E 176°09'0 0.0
2017-Dec-15 21:29S 37°33' E 176°09'0 0.1
2017-Dec-15 20:59S 37°33' E 176°09'0 0.0
2017-Dec-15 20:30S 37°33' E 176°09'0 0.0
2017-Dec-15 19:59S 37°33' E 176°09'0 0.1
2017-Dec-15 19:29S 37°33' E 176°09'0 0.1
2017-Dec-15 18:59S 37°33' E 176°09'0 0.1
2017-Dec-15 18:29S 37°33' E 176°09'0 0.0
2017-Dec-15 17:59S 37°33' E 176°09'0 0.0
2017-Dec-15 17:29S 37°33' E 176°09'0 0.1
2017-Dec-15 16:59S 37°33' E 176°09'0 0.2
2017-Dec-15 16:29S 37°33' E 176°09'0 0.0
2017-Dec-15 15:59S 37°33' E 176°09'0 0.0
2017-Dec-15 15:29S 37°33' E 176°09'0 0.0
2017-Dec-15 14:59S 37°33' E 176°09'0 0.0
2017-Dec-15 14:29S 37°33' E 176°09'0 0.0
2017-Dec-15 13:59S 37°33' E 176°09'0 0.0
2017-Dec-15 13:29S 37°33' E 176°09'0 0.0
2017-Dec-15 12:59S 37°33' E 176°09'0 0.0
2017-Dec-15 12:29S 37°33' E 176°09'0 0.0
2017-Dec-15 11:59S 37°33' E 176°09'0 0.0
2017-Dec-15 11:29S 37°33' E 176°09'0 0.3
2017-Dec-15 10:59S 37°33' E 176°09'1 1.8
2017-Dec-15 10:30S 37°32' E 176°10'5 7.9
2017-Dec-15 09:56S 37°29' E 176°14'  
2017-Dec-12 16:32S 45°42' E 170°48'012.4
2017-Dec-12 16:30S 45°42' E 170°48'5 9.7
2017-Dec-12 16:00S 45°46' E 170°43'3 0.1
2017-Dec-11 05:33S 45°48' E 170°40'0 8.9
2017-Dec-11 05:30S 45°48' E 170°40'3 0.1
2017-Dec-09 18:58S 45°46' E 170°43'3 0.2
2017-Dec-09 05:45S 45°48' E 170°40'2 9.8
2017-Dec-09 05:30S 45°47' E 170°43'6 0.2
2017-Dec-08 07:11S 45°43' E 170°48'2 9.7
2017-Dec-08 07:00S 45°43' E 170°50'611.9
2017-Dec-08 06:29S 45°49' E 170°54'612.8
2017-Dec-08 06:00S 45°55' E 170°52'611.9
2017-Dec-08 05:30S 45°60' E 170°47'612.2
2017-Dec-08 05:00S 46°04' E 170°41'611.9
2017-Dec-08 04:30S 46°08' E 170°34'612.0
2017-Dec-08 04:00S 46°12' E 170°28'611.9
2017-Dec-08 03:30S 46°16' E 170°21'611.7
2017-Dec-08 03:00S 46°20' E 170°15'611.6
2017-Dec-08 02:30S 46°23' E 170°08'611.6
2017-Dec-08 02:00S 46°27' E 170°02'611.9
2017-Dec-08 01:30S 46°31' E 169°56'66 2.8
2017-Dec-07 01:44S 46°35' E 168°20'0 0.0
2017-Dec-07 01:29S 46°35' E 168°20'0 0.0
2017-Dec-07 00:59S 46°35' E 168°20'0 0.0
2017-Dec-06 22:11S 46°35' E 168°20'0 0.0
2017-Dec-06 21:59S 46°35' E 168°20'0 0.0
2017-Dec-06 21:29S 46°35' E 168°20'0 0.0
2017-Dec-06 20:59S 46°35' E 168°20'  
Track history (hours):
 
Tides and Currents Weather Stations Pressure Air Temp Water Temp Dewpoint Dewpoint Depression Visibility Wind Speed Wind Dir Waves Ship Positions

Sbi Tango

Last reported at 2017-Dec-15 23:29 UTC. Time now 2017-Dec-15 23:52 UTC.
Position S 37°33' E 176°09'.

Length 199 m; draft 9.1 m.

Type: Cargo ship. MMSI: 538006140.

Date/timePositionNaut miles runAvg speedWind from/ knotsBaromVisibWave heightAir tempDewpointWater temp
2017-Dec-15 23:29S 37°33' E 176°09'0 0.0
2017-Dec-15 22:59S 37°33' E 176°09'0 0.1
2017-Dec-15 22:29S 37°33' E 176°09'0 0.0
2017-Dec-15 21:59S 37°33' E 176°09'0 0.0
2017-Dec-15 21:29S 37°33' E 176°09'0 0.1
2017-Dec-15 20:59S 37°33' E 176°09'0 0.0
2017-Dec-15 20:30S 37°33' E 176°09'0 0.0
2017-Dec-15 19:59S 37°33' E 176°09'0 0.1
2017-Dec-15 19:29S 37°33' E 176°09'0 0.1
2017-Dec-15 18:59S 37°33' E 176°09'0 0.1
2017-Dec-15 18:29S 37°33' E 176°09'0 0.0
2017-Dec-15 17:59S 37°33' E 176°09'0 0.0
2017-Dec-15 17:29S 37°33' E 176°09'0 0.1
2017-Dec-15 16:59S 37°33' E 176°09'0 0.2
2017-Dec-15 16:29S 37°33' E 176°09'0 0.0
2017-Dec-15 15:59S 37°33' E 176°09'0 0.0
2017-Dec-15 15:29S 37°33' E 176°09'0 0.0
2017-Dec-15 14:59S 37°33' E 176°09'0 0.0
2017-Dec-15 14:29S 37°33' E 176°09'0 0.0
2017-Dec-15 13:59S 37°33' E 176°09'0 0.0
2017-Dec-15 13:29S 37°33' E 176°09'0 0.0
2017-Dec-15 12:59S 37°33' E 176°09'0 0.0
2017-Dec-15 12:29S 37°33' E 176°09'0 0.0
2017-Dec-15 11:59S 37°33' E 176°09'0 0.0
2017-Dec-15 11:29S 37°33' E 176°09'0 0.3
2017-Dec-15 10:59S 37°33' E 176°09'1 1.8
2017-Dec-15 10:30S 37°32' E 176°10'5 7.9
2017-Dec-15 09:56S 37°29' E 176°14'  
2017-Dec-12 16:32S 45°42' E 170°48'012.4
2017-Dec-12 16:30S 45°42' E 170°48'5 9.7
2017-Dec-12 16:00S 45°46' E 170°43'3 0.1
2017-Dec-11 05:33S 45°48' E 170°40'0 8.9
2017-Dec-11 05:30S 45°48' E 170°40'3 0.1
2017-Dec-09 18:58S 45°46' E 170°43'3 0.2
2017-Dec-09 05:45S 45°48' E 170°40'2 9.8
2017-Dec-09 05:30S 45°47' E 170°43'6 0.2
2017-Dec-08 07:11S 45°43' E 170°48'2 9.7
2017-Dec-08 07:00S 45°43' E 170°50'611.9
2017-Dec-08 06:29S 45°49' E 170°54'612.8
2017-Dec-08 06:00S 45°55' E 170°52'611.9
2017-Dec-08 05:30S 45°60' E 170°47'612.2
2017-Dec-08 05:00S 46°04' E 170°41'611.9
2017-Dec-08 04:30S 46°08' E 170°34'612.0
2017-Dec-08 04:00S 46°12' E 170°28'611.9
2017-Dec-08 03:30S 46°16' E 170°21'611.7
2017-Dec-08 03:00S 46°20' E 170°15'611.6
2017-Dec-08 02:30S 46°23' E 170°08'611.6
2017-Dec-08 02:00S 46°27' E 170°02'611.9
2017-Dec-08 01:30S 46°31' E 169°56'66 2.8
2017-Dec-07 01:44S 46°35' E 168°20'0 0.0
2017-Dec-07 01:29S 46°35' E 168°20'0 0.0
2017-Dec-07 00:59S 46°35' E 168°20'0 0.0
2017-Dec-06 22:11S 46°35' E 168°20'0 0.0
2017-Dec-06 21:59S 46°35' E 168°20'0 0.0
2017-Dec-06 21:29S 46°35' E 168°20'0 0.0
2017-Dec-06 20:59S 46°35' E 168°20'  

Dump ship's entire track history